createdAt,value
2019-03-06T00:00:21.306Z,0
2019-03-06T00:01:22.699Z,0
2019-03-06T00:02:24.232Z,0
2019-03-06T00:03:25.623Z,0
2019-03-06T00:04:27.018Z,0
2019-03-06T00:05:28.551Z,0
2019-03-06T00:06:29.910Z,0
2019-03-06T00:07:31.303Z,0
2019-03-06T00:08:32.876Z,0
2019-03-06T00:09:34.270Z,0
2019-03-06T00:10:35.665Z,0
2019-03-06T00:11:37.192Z,0
2019-03-06T00:12:38.587Z,0
2019-03-06T00:13:40.078Z,0
2019-03-06T00:14:41.481Z,0
2019-03-06T00:15:42.868Z,0
2019-03-06T00:16:44.402Z,0
2019-03-06T00:17:45.758Z,0
2019-03-06T00:18:47.154Z,0
2019-03-06T00:19:48.718Z,0
2019-03-06T00:20:50.136Z,0
2019-03-06T00:21:51.530Z,0
2019-03-06T00:22:53.042Z,0
2019-03-06T00:23:54.430Z,0
2019-03-06T00:24:55.828Z,0
2019-03-06T00:25:57.359Z,0
2019-03-06T00:26:58.754Z,0
2019-03-06T00:28:00.152Z,0
2019-03-06T00:29:01.684Z,0
2019-03-06T00:30:03.074Z,0
2019-03-06T00:31:04.480Z,0
2019-03-06T00:32:06.001Z,0
2019-03-06T00:33:07.401Z,0
2019-03-06T00:34:08.793Z,0
2019-03-06T00:35:10.328Z,0
2019-03-06T00:36:11.724Z,0
2019-03-06T00:37:13.130Z,0
2019-03-06T00:38:14.646Z,0
2019-03-06T00:39:16.039Z,0
2019-03-06T00:40:17.527Z,0
2019-03-06T00:41:18.918Z,0
2019-03-06T00:42:20.315Z,0
2019-03-06T00:43:21.850Z,0
2019-03-06T00:44:23.246Z,0
2019-03-06T00:45:24.641Z,0
2019-03-06T00:46:26.182Z,0
2019-03-06T00:47:27.678Z,0
2019-03-06T00:48:29.072Z,0
2019-03-06T00:49:30.690Z,0
2019-03-06T00:50:32.090Z,0
2019-03-06T00:51:33.448Z,0
2019-03-06T00:52:35.017Z,0
2019-03-06T00:53:36.408Z,0
2019-03-06T00:54:37.900Z,0
2019-03-06T00:55:39.302Z,0
2019-03-06T00:56:40.779Z,0
2019-03-06T00:57:42.171Z,0
2019-03-06T00:58:43.660Z,0
2019-03-06T00:59:45.055Z,0
2019-03-06T01:00:46.541Z,0
2019-03-06T01:01:47.930Z,0
2019-03-06T01:02:49.420Z,0
2019-03-06T01:03:50.815Z,0
2019-03-06T01:04:52.322Z,0
2019-03-06T01:05:53.718Z,0
2019-03-06T01:06:55.387Z,0
2019-03-06T01:07:56.778Z,0
2019-03-06T01:08:58.268Z,0
2019-03-06T01:09:59.687Z,0
2019-03-06T01:11:01.354Z,0
2019-03-06T01:12:02.750Z,0
2019-03-06T01:13:04.146Z,0
2019-03-06T01:14:05.679Z,0
2019-03-06T01:15:07.072Z,0
2019-03-06T01:16:08.464Z,0
2019-03-06T01:17:10.006Z,0
2019-03-06T01:18:11.406Z,0
2019-03-06T01:19:12.880Z,0
2019-03-06T01:20:14.277Z,0
2019-03-06T01:21:15.761Z,0
2019-03-06T01:22:17.155Z,0
2019-03-06T01:23:18.555Z,0
2019-03-06T01:24:20.083Z,0
2019-03-06T01:25:21.517Z,0
2019-03-06T01:26:22.916Z,0
2019-03-06T01:27:24.407Z,0
2019-03-06T01:28:25.804Z,0
2019-03-06T01:29:27.221Z,0
2019-03-06T01:30:28.727Z,0
2019-03-06T01:31:30.121Z,0
2019-03-06T01:32:31.511Z,0
2019-03-06T01:33:33.045Z,0
2019-03-06T01:34:34.441Z,0
2019-03-06T01:35:35.835Z,0
2019-03-06T01:36:37.366Z,0
2019-03-06T01:37:38.815Z,0
2019-03-06T01:38:40.451Z,0
2019-03-06T01:39:41.845Z,0
2019-03-06T01:40:43.333Z,0
2019-03-06T01:41:44.726Z,0
2019-03-06T01:42:46.210Z,0
2019-03-06T01:43:47.611Z,0
2019-03-06T01:44:49.094Z,0
2019-03-06T01:45:50.487Z,0
2019-03-06T01:46:51.993Z,0
2019-03-06T01:47:53.351Z,0
2019-03-06T01:48:54.855Z,0
2019-03-06T01:49:56.251Z,0
2019-03-06T01:50:57.737Z,0
2019-03-06T01:51:59.134Z,0
2019-03-06T01:53:00.532Z,0
2019-03-06T01:54:02.058Z,0
2019-03-06T01:55:03.453Z,0
2019-03-06T01:56:04.852Z,0
2019-03-06T01:57:06.386Z,0
2019-03-06T01:58:07.783Z,0
2019-03-06T01:59:09.260Z,0
2019-03-06T02:00:10.668Z,0
2019-03-06T02:01:12.162Z,0
2019-03-06T02:02:13.553Z,0
2019-03-06T02:03:14.949Z,0
2019-03-06T02:04:16.468Z,0
2019-03-06T02:05:17.861Z,0
2019-03-06T02:06:19.254Z,0
2019-03-06T02:07:20.785Z,0
2019-03-06T02:08:22.182Z,0
2019-03-06T02:09:23.559Z,0
2019-03-06T02:10:25.105Z,0
2019-03-06T02:11:26.503Z,0
2019-03-06T02:12:27.895Z,0
2019-03-06T02:13:29.428Z,0
2019-03-06T02:14:30.824Z,0
2019-03-06T02:15:32.331Z,0
2019-03-06T02:16:33.719Z,0
2019-03-06T02:17:35.188Z,0
2019-03-06T02:18:36.602Z,0
2019-03-06T02:19:38.274Z,0
2019-03-06T02:20:39.631Z,0
2019-03-06T02:21:41.166Z,0
2019-03-06T02:22:42.556Z,0
2019-03-06T02:23:43.953Z,0
2019-03-06T02:24:45.477Z,0
2019-03-06T02:25:46.873Z,0
2019-03-06T02:26:48.263Z,0
2019-03-06T02:27:49.797Z,0
2019-03-06T02:28:51.190Z,0
2019-03-06T02:29:52.679Z,0
2019-03-06T02:30:54.078Z,0
2019-03-06T02:31:55.561Z,0
2019-03-06T02:32:56.965Z,0
2019-03-06T02:33:58.444Z,0
2019-03-06T02:34:59.838Z,0
2019-03-06T02:36:01.320Z,0
2019-03-06T02:37:02.717Z,0
2019-03-06T02:38:04.111Z,0
2019-03-06T02:39:05.644Z,0
2019-03-06T02:40:07.042Z,0
2019-03-06T02:41:08.442Z,0
2019-03-06T02:42:09.964Z,0
2019-03-06T02:43:11.356Z,0
2019-03-06T02:44:12.754Z,0
2019-03-06T02:45:14.291Z,0
2019-03-06T02:46:15.680Z,0
2019-03-06T02:47:17.169Z,0
2019-03-06T02:48:18.559Z,0
2019-03-06T02:49:19.955Z,0
2019-03-06T02:50:21.490Z,0
2019-03-06T02:51:22.881Z,0
2019-03-06T02:52:24.275Z,0
2019-03-06T02:53:25.814Z,0
2019-03-06T02:54:27.208Z,0
2019-03-06T02:55:28.599Z,0
2019-03-06T02:56:30.130Z,0
2019-03-06T02:57:31.522Z,0
2019-03-06T02:58:32.916Z,0
2019-03-06T02:59:34.460Z,0
2019-03-06T03:00:35.849Z,0
2019-03-06T03:01:37.250Z,0
2019-03-06T03:02:38.783Z,0
2019-03-06T03:03:40.136Z,0
2019-03-06T03:04:41.649Z,0
2019-03-06T03:05:43.053Z,0
2019-03-06T03:06:44.534Z,0
2019-03-06T03:07:45.925Z,0
2019-03-06T03:08:47.416Z,0
2019-03-06T03:09:48.816Z,0
2019-03-06T03:10:50.297Z,0
2019-03-06T03:11:51.690Z,0
2019-03-06T03:12:53.088Z,0
2019-03-06T03:13:54.489Z,0
2019-03-06T03:14:55.842Z,0
2019-03-06T03:15:57.558Z,0
2019-03-06T03:16:58.890Z,0
2019-03-06T03:18:00.286Z,0
2019-03-06T03:19:01.831Z,0
2019-03-06T03:20:03.213Z,0
2019-03-06T03:21:04.633Z,0
2019-03-06T03:22:06.142Z,0
2019-03-06T03:23:07.543Z,0
2019-03-06T03:24:08.935Z,0
2019-03-06T03:25:10.464Z,0
2019-03-06T03:26:11.881Z,0
2019-03-06T03:27:13.287Z,0
2019-03-06T03:28:14.785Z,0
2019-03-06T03:29:16.183Z,0
2019-03-06T03:30:17.583Z,0
2019-03-06T03:31:19.110Z,0
2019-03-06T03:32:20.527Z,0
2019-03-06T03:33:21.897Z,0
2019-03-06T03:34:23.431Z,0
2019-03-06T03:35:24.791Z,0
2019-03-06T03:36:26.189Z,0
2019-03-06T03:37:27.749Z,0
2019-03-06T03:38:29.140Z,0
2019-03-06T03:39:30.533Z,0
2019-03-06T03:40:32.081Z,0
2019-03-06T03:41:33.494Z,0
2019-03-06T03:42:34.964Z,0
2019-03-06T03:43:36.354Z,0
2019-03-06T03:44:37.747Z,0
2019-03-06T03:45:39.325Z,0
2019-03-06T03:46:40.701Z,0
2019-03-06T03:47:42.097Z,0
2019-03-06T03:48:43.593Z,0
2019-03-06T03:49:44.988Z,0
2019-03-06T03:50:46.477Z,0
2019-03-06T03:51:47.879Z,0
2019-03-06T03:52:49.359Z,0
2019-03-06T03:53:50.751Z,0
2019-03-06T03:54:52.236Z,0
2019-03-06T03:55:53.632Z,0
2019-03-06T03:56:55.120Z,0
2019-03-06T03:57:56.524Z,0
2019-03-06T03:58:57.907Z,0
2019-03-06T03:59:59.440Z,0
2019-03-06T04:01:00.832Z,0
2019-03-06T04:02:02.226Z,0
2019-03-06T04:03:03.793Z,0
2019-03-06T04:04:05.199Z,0
2019-03-06T04:05:06.589Z,0
2019-03-06T04:06:08.113Z,0
2019-03-06T04:07:09.472Z,0
2019-03-06T04:08:10.914Z,0
2019-03-06T04:09:12.405Z,0
2019-03-06T04:10:13.830Z,0
2019-03-06T04:11:55.043Z,0
2019-03-06T04:12:56.439Z,0
2019-03-06T04:13:57.900Z,0
2019-03-06T04:14:59.298Z,0
2019-03-06T04:16:00.700Z,0
2019-03-06T04:17:02.221Z,0
2019-03-06T04:18:03.690Z,0
2019-03-06T04:19:05.086Z,0
2019-03-06T04:20:06.552Z,0
2019-03-06T04:21:07.946Z,0
2019-03-06T04:22:09.423Z,0
2019-03-06T04:23:10.815Z,0
2019-03-06T04:24:12.225Z,0
2019-03-06T04:25:13.747Z,0
2019-03-06T04:26:15.192Z,0
2019-03-06T04:27:16.602Z,0
2019-03-06T04:28:18.061Z,0
2019-03-06T04:29:19.460Z,0
2019-03-06T04:30:20.853Z,0
2019-03-06T04:31:22.381Z,0
2019-03-06T04:32:23.784Z,0
2019-03-06T04:33:25.263Z,0
2019-03-06T04:34:26.658Z,0
2019-03-06T04:35:28.143Z,0
2019-03-06T04:36:29.539Z,0
2019-03-06T04:37:31.045Z,0
2019-03-06T04:38:32.426Z,0
2019-03-06T04:39:33.916Z,0
2019-03-06T04:40:35.310Z,0
2019-03-06T04:41:36.788Z,0
2019-03-06T04:42:38.219Z,0
2019-03-06T04:43:39.875Z,0
2019-03-06T04:44:41.264Z,0
2019-03-06T04:45:42.761Z,0
2019-03-06T04:46:44.125Z,0
2019-03-06T04:47:45.633Z,0
2019-03-06T04:48:47.037Z,0
2019-03-06T04:49:52.593Z,0
2019-03-06T04:50:49.801Z,0
2019-03-06T04:51:51.287Z,0
2019-03-06T04:52:52.856Z,0
2019-03-06T04:53:54.251Z,0
2019-03-06T04:54:55.660Z,0
2019-03-06T04:55:57.160Z,0
2019-03-06T04:56:58.644Z,0
2019-03-06T04:58:00.246Z,0
2019-03-06T04:59:01.641Z,0
2019-03-06T05:00:03.135Z,0
2019-03-06T05:01:04.772Z,0
2019-03-06T05:02:06.170Z,0
2019-03-06T05:03:07.565Z,0
2019-03-06T05:04:09.089Z,0
2019-03-06T05:05:10.493Z,0
2019-03-06T05:06:11.971Z,0
2019-03-06T05:07:13.368Z,0
2019-03-06T05:08:14.855Z,0
2019-03-06T05:09:16.262Z,0
2019-03-06T05:10:17.657Z,0
2019-03-06T05:11:19.178Z,0
2019-03-06T05:12:20.569Z,0
2019-03-06T05:13:21.970Z,0
2019-03-06T05:14:23.498Z,0
2019-03-06T05:15:24.891Z,0
2019-03-06T05:16:26.387Z,0
2019-03-06T05:17:27.771Z,0
2019-03-06T05:18:29.266Z,0
2019-03-06T05:19:30.630Z,0
2019-03-06T05:20:32.146Z,0
2019-03-06T05:21:33.541Z,0
2019-03-06T05:22:35.023Z,0
2019-03-06T05:23:36.421Z,0
2019-03-06T05:24:37.907Z,0
2019-03-06T05:25:39.304Z,0
2019-03-06T05:26:41.179Z,0
2019-03-06T05:27:42.575Z,0
2019-03-06T05:28:44.072Z,0
2019-03-06T05:29:45.466Z,0
2019-03-06T05:30:46.822Z,0
2019-03-06T05:31:48.394Z,0
2019-03-06T05:32:49.799Z,0
2019-03-06T05:33:51.188Z,0
2019-03-06T05:34:52.714Z,0
2019-03-06T05:35:54.109Z,0
2019-03-06T05:36:55.513Z,0
2019-03-06T05:37:57.043Z,0
2019-03-06T05:38:58.429Z,0
2019-03-06T05:39:59.827Z,0
2019-03-06T05:41:01.358Z,0
2019-03-06T05:42:02.721Z,0
2019-03-06T05:43:04.117Z,0
2019-03-06T05:44:05.679Z,0
2019-03-06T05:45:07.074Z,0
2019-03-06T05:46:08.470Z,0
2019-03-06T05:47:09.995Z,0
2019-03-06T05:48:11.395Z,0
2019-03-06T05:49:12.884Z,0
2019-03-06T05:50:14.277Z,0
2019-03-06T05:51:15.767Z,0
2019-03-06T05:52:17.157Z,0
2019-03-06T05:53:18.644Z,0
2019-03-06T05:54:20.036Z,0
2019-03-06T05:55:21.430Z,0
2019-03-06T05:56:22.964Z,0
2019-03-06T05:57:24.365Z,0
2019-03-06T05:58:25.754Z,0
2019-03-06T05:59:27.286Z,0
2019-03-06T06:00:28.680Z,0
2019-03-06T06:01:30.073Z,0
2019-03-06T06:02:31.608Z,0
2019-03-06T06:03:33.004Z,0
2019-03-06T06:04:34.492Z,0
2019-03-06T06:05:35.885Z,0
2019-03-06T06:06:37.576Z,0
2019-03-06T06:07:38.984Z,0
2019-03-06T06:08:40.493Z,0
2019-03-06T06:09:41.886Z,0
2019-03-06T06:10:43.283Z,0
2019-03-06T06:11:44.777Z,0
2019-03-06T06:12:46.174Z,0
2019-03-06T06:13:47.568Z,5
2019-03-06T06:14:49.100Z,5
2019-03-06T06:15:50.466Z,5
2019-03-06T06:16:51.863Z,5
2019-03-06T06:17:53.420Z,5
2019-03-06T06:18:54.827Z,5
2019-03-06T06:19:56.324Z,5
2019-03-06T06:20:57.713Z,5
2019-03-06T06:21:59.182Z,10
2019-03-06T06:23:00.591Z,10
2019-03-06T06:24:02.065Z,10
2019-03-06T06:25:03.469Z,10
2019-03-06T06:26:04.940Z,10
2019-03-06T06:27:06.344Z,10
2019-03-06T06:28:07.741Z,10
2019-03-06T06:29:09.280Z,15
2019-03-06T06:30:10.677Z,15
2019-03-06T06:31:12.074Z,15
2019-03-06T06:32:13.588Z,15
2019-03-06T06:33:14.994Z,15
2019-03-06T06:34:16.383Z,15
2019-03-06T06:35:17.918Z,15
2019-03-06T06:36:19.312Z,15
2019-03-06T06:37:20.815Z,15
2019-03-06T06:38:22.211Z,15
2019-03-06T06:39:23.671Z,20
2019-03-06T06:40:25.068Z,20
2019-03-06T06:41:26.466Z,20
2019-03-06T06:42:27.993Z,20
2019-03-06T06:43:29.390Z,20
2019-03-06T06:44:30.791Z,25
2019-03-06T06:45:32.308Z,25
2019-03-06T06:46:33.710Z,25
2019-03-06T06:47:35.195Z,25
2019-03-06T06:48:36.556Z,30
2019-03-06T06:49:38.078Z,30
2019-03-06T06:50:39.478Z,30
2019-03-06T06:51:40.975Z,30
2019-03-06T06:52:42.373Z,35
2019-03-06T06:53:43.850Z,35
2019-03-06T06:54:45.244Z,35
2019-03-06T06:55:46.713Z,40
2019-03-06T06:56:48.117Z,40
2019-03-06T06:57:49.599Z,40
2019-03-06T06:58:50.997Z,40
2019-03-06T06:59:52.481Z,45
2019-03-06T07:00:53.896Z,45
2019-03-06T07:01:55.362Z,45
2019-03-06T07:02:56.765Z,45
2019-03-06T07:03:58.242Z,45
2019-03-06T07:04:59.635Z,45
2019-03-06T07:06:01.147Z,45
2019-03-06T07:07:02.541Z,45
2019-03-06T07:08:04.004Z,45
2019-03-06T07:09:05.402Z,50
2019-03-06T07:10:06.885Z,50
2019-03-06T07:11:08.245Z,55
2019-03-06T07:12:09.777Z,55
2019-03-06T07:13:11.164Z,55
2019-03-06T07:14:12.646Z,55
2019-03-06T07:15:14.046Z,60
2019-03-06T07:16:15.445Z,60
2019-03-06T07:17:16.968Z,60
2019-03-06T07:18:18.369Z,65
2019-03-06T07:19:19.765Z,65
2019-03-06T07:20:21.289Z,65
2019-03-06T07:21:22.693Z,65
2019-03-06T07:22:24.088Z,70
2019-03-06T07:23:25.643Z,70
2019-03-06T07:24:27.145Z,70
2019-03-06T07:25:28.544Z,70
2019-03-06T07:26:30.138Z,70
2019-03-06T07:27:31.538Z,70
2019-03-06T07:28:32.933Z,70
2019-03-06T07:29:34.458Z,70
2019-03-06T07:30:35.863Z,70
2019-03-06T07:31:37.259Z,70
2019-03-06T07:32:38.780Z,65
2019-03-06T07:33:40.179Z,65
2019-03-06T07:34:41.690Z,65
2019-03-06T07:35:43.096Z,60
2019-03-06T07:36:44.896Z,60
2019-03-06T07:37:46.291Z,55
2019-03-06T07:38:47.834Z,55
2019-03-06T07:39:49.463Z,55
2019-03-06T07:40:50.916Z,55
2019-03-06T07:41:52.326Z,55
2019-03-06T07:42:53.799Z,55
2019-03-06T07:43:55.204Z,55
2019-03-06T07:44:56.696Z,55
2019-03-06T07:45:58.090Z,55
2019-03-06T07:46:59.566Z,55
2019-03-06T07:48:00.964Z,55
2019-03-06T07:49:02.378Z,60
2019-03-06T07:50:03.882Z,60
2019-03-06T07:51:05.285Z,60
2019-03-06T07:52:06.680Z,65
2019-03-06T07:53:08.218Z,65
2019-03-06T07:54:09.625Z,60
2019-03-06T07:55:11.086Z,65
2019-03-06T07:56:12.500Z,65
2019-03-06T07:57:13.966Z,70
2019-03-06T07:58:15.328Z,70
2019-03-06T07:59:16.863Z,70
2019-03-06T08:00:18.266Z,75
2019-03-06T08:01:19.730Z,75
2019-03-06T08:02:21.175Z,75
2019-03-06T08:03:22.814Z,80
2019-03-06T08:04:24.219Z,85
2019-03-06T08:05:25.696Z,90
2019-03-06T08:06:27.101Z,100
2019-03-06T08:07:28.583Z,105
2019-03-06T08:08:29.987Z,115
2019-03-06T08:09:31.460Z,115
2019-03-06T08:10:32.864Z,120
2019-03-06T08:11:34.335Z,125
2019-03-06T08:12:35.754Z,125
2019-03-06T08:13:37.146Z,125
2019-03-06T08:14:38.662Z,125
2019-03-06T08:15:40.071Z,120
2019-03-06T08:16:41.487Z,125
2019-03-06T08:17:42.976Z,120
2019-03-06T08:18:44.385Z,125
2019-03-06T08:19:45.849Z,130
2019-03-06T08:20:47.261Z,135
2019-03-06T08:21:48.625Z,140
2019-03-06T08:22:50.192Z,140
2019-03-06T08:23:51.590Z,150
2019-03-06T08:24:53.067Z,150
2019-03-06T08:25:54.485Z,150
2019-03-06T08:26:55.875Z,155
2019-03-06T08:27:57.396Z,155
2019-03-06T08:28:58.804Z,155
2019-03-06T08:30:00.280Z,155
2019-03-06T08:31:01.711Z,155
2019-03-06T08:32:03.118Z,160
2019-03-06T08:33:04.489Z,160
2019-03-06T08:34:06.032Z,165
2019-03-06T08:35:07.435Z,165
2019-03-06T08:36:08.927Z,175
2019-03-06T08:37:10.331Z,180
2019-03-06T08:38:11.794Z,180
2019-03-06T08:39:13.201Z,180
2019-03-06T08:40:14.673Z,175
2019-03-06T08:41:16.074Z,175
2019-03-06T08:42:17.552Z,175
2019-03-06T08:43:18.958Z,170
2019-03-06T08:44:20.329Z,170
2019-03-06T08:45:22.004Z,170
2019-03-06T08:46:23.414Z,170
2019-03-06T08:47:24.817Z,180
2019-03-06T08:48:26.404Z,185
2019-03-06T08:49:27.810Z,190
2019-03-06T08:50:29.279Z,190
2019-03-06T08:51:30.680Z,195
2019-03-06T08:52:32.162Z,195
2019-03-06T08:53:33.564Z,195
2019-03-06T08:54:34.963Z,195
2019-03-06T08:55:36.507Z,190
2019-03-06T08:56:37.913Z,190
2019-03-06T08:57:39.313Z,200
2019-03-06T08:58:40.816Z,220
2019-03-06T08:59:42.221Z,210
2019-03-06T09:00:43.686Z,205
2019-03-06T09:01:45.096Z,185
2019-03-06T09:02:46.733Z,160
2019-03-06T09:03:48.143Z,155
2019-03-06T09:04:49.652Z,160
2019-03-06T09:05:51.065Z,175
2019-03-06T09:06:52.536Z,210
2019-03-06T09:07:53.939Z,215
2019-03-06T09:08:55.416Z,215
2019-03-06T09:09:56.826Z,225
2019-03-06T09:11:02.850Z,195
2019-03-06T09:11:59.732Z,195
2019-03-06T09:13:01.111Z,200
2019-03-06T09:14:02.621Z,205
2019-03-06T09:15:04.021Z,210
2019-03-06T09:16:05.424Z,235
2019-03-06T09:17:06.941Z,250
2019-03-06T09:18:09.356Z,260
2019-03-06T09:19:09.672Z,280
2019-03-06T09:20:11.297Z,320
2019-03-06T09:21:12.711Z,350
2019-03-06T09:22:14.123Z,335
2019-03-06T09:23:22.768Z,255
2019-03-06T09:24:16.949Z,225
2019-03-06T09:25:18.360Z,225
2019-03-06T09:26:19.899Z,205
2019-03-06T09:27:21.376Z,215
2019-03-06T09:28:22.775Z,210
2019-03-06T09:29:24.253Z,195
2019-03-06T09:30:25.667Z,195
2019-03-06T09:31:27.089Z,195
2019-03-06T09:32:28.549Z,185
2019-03-06T09:33:30.043Z,180
2019-03-06T09:34:31.476Z,185
2019-03-06T09:35:33.069Z,210
2019-03-06T09:36:34.474Z,240
2019-03-06T09:37:35.893Z,265
2019-03-06T09:38:37.397Z,300
2019-03-06T09:39:38.877Z,285
2019-03-06T09:40:40.249Z,300
2019-03-06T09:41:41.713Z,305
2019-03-06T09:42:43.135Z,325
2019-03-06T09:43:44.548Z,330
2019-03-06T09:44:46.032Z,375
2019-03-06T09:45:47.439Z,345
2019-03-06T09:46:48.837Z,335
2019-03-06T09:47:50.357Z,325
2019-03-06T09:48:51.806Z,310
2019-03-06T09:49:53.222Z,305
2019-03-06T09:50:54.677Z,300
2019-03-06T09:51:56.056Z,295
2019-03-06T09:52:57.451Z,295
2019-03-06T09:53:59.019Z,300
2019-03-06T09:55:00.406Z,310
2019-03-06T09:56:01.812Z,295
2019-03-06T09:57:03.322Z,295
2019-03-06T09:58:04.741Z,285
2019-03-06T09:59:06.139Z,260
2019-03-06T10:00:07.645Z,240
2019-03-06T10:01:09.048Z,235
2019-03-06T10:02:10.478Z,225
2019-03-06T10:03:11.962Z,230
2019-03-06T10:04:13.360Z,230
2019-03-06T10:05:14.863Z,240
2019-03-06T10:06:16.255Z,245
2019-03-06T10:07:17.719Z,250
2019-03-06T10:08:19.130Z,255
2019-03-06T10:09:20.549Z,260
2019-03-06T10:10:21.954Z,260
2019-03-06T10:11:23.352Z,265
2019-03-06T10:12:24.923Z,280
2019-03-06T10:13:26.334Z,295
2019-03-06T10:14:27.808Z,310
2019-03-06T10:15:29.209Z,325
2019-03-06T10:16:30.691Z,345
2019-03-06T10:17:32.107Z,340
2019-03-06T10:18:33.567Z,350
2019-03-06T10:19:34.980Z,310
2019-03-06T10:20:36.457Z,315
2019-03-06T10:21:37.858Z,305
2019-03-06T10:22:39.344Z,260
2019-03-06T10:23:40.750Z,250
2019-03-06T10:24:42.167Z,260
2019-03-06T10:25:43.655Z,280
2019-03-06T10:26:45.060Z,300
2019-03-06T10:27:46.469Z,245
2019-03-06T10:28:47.967Z,205
2019-03-06T10:29:49.350Z,205
2019-03-06T10:30:50.754Z,260
2019-03-06T10:31:52.411Z,325
2019-03-06T10:32:53.780Z,345
2019-03-06T10:33:55.177Z,345
2019-03-06T10:34:56.838Z,295
2019-03-06T10:35:58.201Z,280
2019-03-06T10:36:59.602Z,435
2019-03-06T10:38:01.142Z,310
2019-03-06T10:39:02.574Z,290
2019-03-06T10:40:04.014Z,300
2019-03-06T10:41:05.463Z,305
2019-03-06T10:42:06.870Z,330
2019-03-06T10:43:08.276Z,390
2019-03-06T10:44:09.791Z,370
2019-03-06T10:45:11.196Z,375
2019-03-06T10:46:12.665Z,365
2019-03-06T10:47:14.068Z,350
2019-03-06T10:48:15.550Z,305
2019-03-06T10:49:16.963Z,280
2019-03-06T10:50:26.357Z,270
2019-03-06T10:51:19.794Z,270
2019-03-06T10:52:21.307Z,280
2019-03-06T10:53:22.722Z,285
2019-03-06T10:54:24.190Z,285
2019-03-06T10:55:25.601Z,290
2019-03-06T10:56:27.801Z,280
2019-03-06T10:58:56.869Z,260
2019-03-06T10:59:58.424Z,270
2019-03-06T11:01:20.169Z,280
2019-03-06T11:02:21.571Z,285
2019-03-06T11:03:43.373Z,285
2019-03-06T11:04:44.687Z,285
2019-03-06T11:05:46.200Z,280
2019-03-06T11:06:47.606Z,265
2019-03-06T11:07:49.056Z,265
2019-03-06T11:08:50.467Z,265
2019-03-06T11:09:51.938Z,265
2019-03-06T11:10:53.362Z,270
2019-03-06T11:11:54.820Z,265
2019-03-06T11:12:56.248Z,260
2019-03-06T11:14:05.797Z,255
2019-03-06T11:14:59.066Z,250
2019-03-06T11:16:00.472Z,240
2019-03-06T11:17:02.022Z,235
2019-03-06T11:18:03.395Z,225
2019-03-06T11:19:04.753Z,215
2019-03-06T11:20:06.383Z,210
2019-03-06T11:21:07.788Z,215
2019-03-06T11:22:09.627Z,220
2019-03-06T11:23:11.035Z,225
2019-03-06T11:24:12.437Z,235
2019-03-06T11:25:13.956Z,240
2019-03-06T11:26:15.425Z,245
2019-03-06T11:27:16.843Z,245
2019-03-06T11:28:18.279Z,240
2019-03-06T11:29:19.684Z,260
2019-03-06T11:30:21.089Z,270
2019-03-06T11:31:22.602Z,265
2019-03-06T11:32:24.006Z,250
2019-03-06T11:33:25.445Z,225
2019-03-06T11:34:26.918Z,220
2019-03-06T11:35:28.323Z,210
2019-03-06T11:36:29.800Z,210
2019-03-06T11:37:31.210Z,200
2019-03-06T11:38:32.683Z,190
2019-03-06T11:39:34.086Z,185
2019-03-06T11:40:35.488Z,180
2019-03-06T11:41:37.004Z,190
2019-03-06T11:42:38.480Z,200
2019-03-06T11:43:39.844Z,200
2019-03-06T11:44:41.324Z,195
2019-03-06T11:45:42.727Z,190
2019-03-06T11:46:44.238Z,185
2019-03-06T11:47:45.648Z,205
2019-03-06T11:48:47.086Z,240
2019-03-06T11:49:48.496Z,255
2019-03-06T11:50:49.991Z,270
2019-03-06T11:51:51.387Z,275
2019-03-06T11:52:52.848Z,280
2019-03-06T11:53:54.230Z,275
2019-03-06T11:54:55.732Z,275
2019-03-06T11:55:57.132Z,270
2019-03-06T11:56:58.612Z,275
2019-03-06T11:58:00.055Z,275
2019-03-06T11:59:01.504Z,275
2019-03-06T12:00:02.897Z,285
2019-03-06T12:01:04.373Z,280
2019-03-06T12:02:05.778Z,270
2019-03-06T12:03:07.256Z,270
2019-03-06T12:04:08.661Z,265
2019-03-06T12:05:10.215Z,260
2019-03-06T12:06:11.625Z,260
2019-03-06T12:07:13.208Z,275
2019-03-06T12:08:14.616Z,290
2019-03-06T12:09:16.104Z,290
2019-03-06T12:10:17.512Z,310
2019-03-06T12:11:19.002Z,310
2019-03-06T12:12:20.359Z,300
2019-03-06T12:13:21.864Z,275
2019-03-06T12:14:23.266Z,280
2019-03-06T12:15:24.674Z,240
2019-03-06T12:16:26.184Z,235
2019-03-06T12:17:27.589Z,250
2019-03-06T12:18:29.013Z,270
2019-03-06T12:19:30.504Z,285
2019-03-06T12:20:31.931Z,300
2019-03-06T12:21:33.317Z,315
2019-03-06T12:22:34.858Z,305
2019-03-06T12:23:36.262Z,300
2019-03-06T12:24:37.710Z,275
2019-03-06T12:25:39.532Z,255
2019-03-06T12:26:40.936Z,245
2019-03-06T12:27:42.436Z,250
2019-03-06T12:28:43.867Z,250
2019-03-06T12:29:45.278Z,250
2019-03-06T12:30:46.762Z,265
2019-03-06T12:31:48.165Z,270
2019-03-06T12:32:49.568Z,275
2019-03-06T12:33:51.081Z,270
2019-03-06T12:34:52.483Z,275
2019-03-06T12:35:53.908Z,280
2019-03-06T12:36:55.403Z,285
2019-03-06T12:37:56.813Z,275
2019-03-06T12:38:58.216Z,285
2019-03-06T12:39:59.729Z,290
2019-03-06T12:41:01.137Z,280
2019-03-06T12:42:02.521Z,270
2019-03-06T12:43:04.048Z,270
2019-03-06T12:44:10.415Z,260
2019-03-06T12:45:06.819Z,250
2019-03-06T12:46:08.374Z,240
2019-03-06T12:47:10.890Z,215
2019-03-06T12:48:11.145Z,185
2019-03-06T12:49:12.795Z,155
2019-03-06T12:50:14.202Z,150
2019-03-06T12:51:15.609Z,150
2019-03-06T12:52:17.008Z,155
2019-03-06T12:53:18.414Z,155
2019-03-06T12:54:19.887Z,165
2019-03-06T12:55:21.297Z,165
2019-03-06T12:56:22.773Z,165
2019-03-06T12:57:24.181Z,170
2019-03-06T12:58:25.756Z,170
2019-03-06T12:59:27.164Z,175
2019-03-06T13:00:28.563Z,180
2019-03-06T13:01:30.704Z,185
2019-03-06T13:02:32.078Z,190
2019-03-06T13:03:33.479Z,195
2019-03-06T13:04:35.018Z,200
2019-03-06T13:05:36.423Z,190
2019-03-06T13:06:37.825Z,180
2019-03-06T13:07:39.539Z,170
2019-03-06T13:08:49.901Z,160
2019-03-06T13:09:42.636Z,150
2019-03-06T13:10:44.075Z,145
2019-03-06T13:11:45.409Z,140
2019-03-06T13:12:46.946Z,135
2019-03-06T13:13:48.362Z,140
2019-03-06T13:14:49.768Z,140
2019-03-06T13:15:51.475Z,135
2019-03-06T13:16:52.896Z,125
2019-03-06T13:17:54.555Z,125
2019-03-06T13:18:55.960Z,130
2019-03-06T13:19:57.641Z,125
2019-03-06T13:20:59.013Z,115
2019-03-06T13:22:00.728Z,105
2019-03-06T13:23:03.989Z,95
2019-03-06T13:24:03.815Z,90
2019-03-06T13:25:05.217Z,90
2019-03-06T13:26:10.224Z,75
2019-03-06T13:27:08.137Z,75
2019-03-06T13:28:09.535Z,75
2019-03-06T13:29:10.942Z,80
2019-03-06T13:30:12.671Z,90
2019-03-06T13:31:14.024Z,85
2019-03-06T13:32:15.485Z,80
2019-03-06T13:33:17.186Z,75
2019-03-06T13:34:18.591Z,65
2019-03-06T13:35:19.989Z,65
2019-03-06T13:36:21.714Z,65
2019-03-06T13:37:23.111Z,70
2019-03-06T13:38:24.514Z,90
2019-03-06T13:39:26.257Z,110
2019-03-06T13:40:27.624Z,120
2019-03-06T13:41:29.035Z,125
2019-03-06T13:42:30.560Z,115
2019-03-06T13:43:31.967Z,105
2019-03-06T13:44:33.649Z,115
2019-03-06T13:45:35.051Z,120
2019-03-06T13:46:36.458Z,115
2019-03-06T13:47:38.171Z,95
2019-03-06T13:48:39.575Z,80
2019-03-06T13:49:40.973Z,75
2019-03-06T13:50:42.646Z,85
2019-03-06T13:51:44.050Z,90
2019-03-06T13:52:45.451Z,90
2019-03-06T13:53:47.021Z,100
2019-03-06T13:54:49.353Z,110
2019-03-06T13:55:49.794Z,95
2019-03-06T13:56:51.871Z,90
2019-03-06T13:57:52.625Z,95
2019-03-06T13:58:54.026Z,75
2019-03-06T13:59:55.661Z,65
2019-03-06T14:00:57.068Z,60
2019-03-06T14:01:58.481Z,50
2019-03-06T14:03:00.188Z,55
2019-03-06T14:04:01.585Z,60
2019-03-06T14:05:03.272Z,60
2019-03-06T14:06:04.675Z,60
2019-03-06T14:07:06.088Z,65
2019-03-06T14:08:07.799Z,80
2019-03-06T14:09:09.168Z,90
2019-03-06T14:10:10.573Z,90
2019-03-06T14:11:12.129Z,90
2019-03-06T14:12:13.533Z,100
2019-03-06T14:13:15.212Z,115
2019-03-06T14:14:16.579Z,105
2019-03-06T14:15:18.328Z,90
2019-03-06T14:16:19.735Z,80
2019-03-06T14:17:21.130Z,75
2019-03-06T14:18:22.816Z,65
2019-03-06T14:19:24.195Z,65
2019-03-06T14:20:25.598Z,60
2019-03-06T14:21:27.140Z,60
2019-03-06T14:22:28.542Z,60
2019-03-06T14:23:35.114Z,65
2019-03-06T14:24:31.477Z,65
2019-03-06T14:25:32.981Z,60
2019-03-06T14:26:34.377Z,60
2019-03-06T14:27:35.986Z,55
2019-03-06T14:28:37.357Z,55
2019-03-06T14:29:38.757Z,55
2019-03-06T14:30:40.309Z,55
2019-03-06T14:31:41.709Z,50
2019-03-06T14:32:43.113Z,50
2019-03-06T14:33:44.835Z,45
2019-03-06T14:34:46.242Z,40
2019-03-06T14:35:47.649Z,45
2019-03-06T14:36:49.365Z,45
2019-03-06T14:37:50.730Z,45
2019-03-06T14:38:52.448Z,50
2019-03-06T14:39:53.846Z,55
2019-03-06T14:40:55.532Z,50